CheckWX is a tool to help pilots better visualize weather data.  It is not intended as a substitute for an official pre-flight weather briefing.

18:42:53 UTC

K2DP METAR
Dare County Gunnery Range Airport
North Carolina, USA
Current

23 hours ago

K2DP 161933Z AUTO 19012G19KT 6SM -RA OVC004 21/21 A2952 RMK AO2 WSHFT 24 SHRAE1711SHRAB1731E1751SHRAB1755E08RAB08 PRESFR SLPNO $
Observed
Oct-16 @ 19:33 UTC
Wind
  • 190° at 12 KTS
  • Gusting to 19 KTS
Visibility
6 SM
Flight Rules
LIFR
Conditions
Light Rain
Cloud Levels
  • Overcast at 400' AGL
Temperature
21°C / 70°F
Dewpoint
21°C / 70°F
Humidity
100%
Altimeter
29.52" Hg
Pressure
999.62 hPa